sensor_id;sensor_type;location;lat;lon;timestamp;P1;durP1;ratioP1;P2;durP2;ratioP2
47960;SDS011;33721;48.852;9.936;2022-12-28T00:03:40;26.63;;;11.82;;
47960;SDS011;33721;48.852;9.936;2022-12-28T00:06:06;26.10;;;11.68;;
47960;SDS011;33721;48.852;9.936;2022-12-28T00:08:32;22.30;;;10.05;;
47960;SDS011;33721;48.852;9.936;2022-12-28T00:10:59;22.05;;;10.70;;
47960;SDS011;33721;48.852;9.936;2022-12-28T00:13:26;29.00;;;10.73;;
47960;SDS011;33721;48.852;9.936;2022-12-28T00:15:53;24.42;;;10.40;;
47960;SDS011;33721;48.852;9.936;2022-12-28T00:18:18;28.13;;;10.20;;
47960;SDS011;33721;48.852;9.936;2022-12-28T00:20:44;20.92;;;10.57;;
47960;SDS011;33721;48.852;9.936;2022-12-28T00:23:23;22.58;;;10.35;;
47960;SDS011;33721;48.852;9.936;2022-12-28T00:25:49;21.02;;;9.90;;
47960;SDS011;33721;48.852;9.936;2022-12-28T00:28:15;22.92;;;10.77;;
47960;SDS011;33721;48.852;9.936;2022-12-28T00:30:41;24.65;;;10.15;;
47960;SDS011;33721;48.852;9.936;2022-12-28T00:33:07;24.42;;;10.15;;
47960;SDS011;33721;48.852;9.936;2022-12-28T00:35:32;22.05;;;9.73;;
47960;SDS011;33721;48.852;9.936;2022-12-28T00:37:58;25.27;;;10.95;;
47960;SDS011;33721;48.852;9.936;2022-12-28T00:40:23;24.55;;;10.40;;
47960;SDS011;33721;48.852;9.936;2022-12-28T00:42:49;22.67;;;10.65;;
47960;SDS011;33721;48.852;9.936;2022-12-28T00:45:15;28.65;;;12.23;;
47960;SDS011;33721;48.852;9.936;2022-12-28T00:47:40;30.10;;;12.95;;
47960;SDS011;33721;48.852;9.936;2022-12-28T00:50:06;27.38;;;12.35;;
47960;SDS011;33721;48.852;9.936;2022-12-28T00:52:32;29.13;;;11.80;;
47960;SDS011;33721;48.852;9.936;2022-12-28T00:54:58;26.27;;;11.60;;
47960;SDS011;33721;48.852;9.936;2022-12-28T00:57:24;25.95;;;11.00;;
47960;SDS011;33721;48.852;9.936;2022-12-28T00:59:49;24.80;;;11.15;;
47960;SDS011;33721;48.852;9.936;2022-12-28T01:02:15;24.15;;;10.65;;
47960;SDS011;33721;48.852;9.936;2022-12-28T01:04:40;27.08;;;10.82;;
47960;SDS011;33721;48.852;9.936;2022-12-28T01:07:06;23.92;;;10.52;;
47960;SDS011;33721;48.852;9.936;2022-12-28T01:09:32;26.17;;;10.95;;
47960;SDS011;33721;48.852;9.936;2022-12-28T01:11:57;26.60;;;9.90;;
47960;SDS011;33721;48.852;9.936;2022-12-28T01:14:23;24.40;;;9.88;;
47960;SDS011;33721;48.852;9.936;2022-12-28T01:16:49;22.02;;;9.35;;
47960;SDS011;33721;48.852;9.936;2022-12-28T01:19:16;25.10;;;11.77;;
47960;SDS011;33721;48.852;9.936;2022-12-28T01:21:46;29.08;;;11.68;;
47960;SDS011;33721;48.852;9.936;2022-12-28T01:24:13;25.33;;;11.40;;
47960;SDS011;33721;48.852;9.936;2022-12-28T01:26:38;25.15;;;11.15;;
47960;SDS011;33721;48.852;9.936;2022-12-28T01:29:04;25.13;;;11.25;;
47960;SDS011;33721;48.852;9.936;2022-12-28T01:31:30;20.77;;;10.45;;
47960;SDS011;33721;48.852;9.936;2022-12-28T01:33:56;25.95;;;10.88;;
47960;SDS011;33721;48.852;9.936;2022-12-28T01:36:23;23.45;;;10.65;;
47960;SDS011;33721;48.852;9.936;2022-12-28T01:38:57;26.80;;;10.88;;
47960;SDS011;33721;48.852;9.936;2022-12-28T01:41:25;30.23;;;11.60;;
47960;SDS011;33721;48.852;9.936;2022-12-28T01:46:19;23.55;;;11.48;;
47960;SDS011;33721;48.852;9.936;2022-12-28T01:49:01;25.38;;;11.38;;
47960;SDS011;33721;48.852;9.936;2022-12-28T01:51:36;27.27;;;10.95;;
47960;SDS011;33721;48.852;9.936;2022-12-28T01:54:12;22.52;;;10.57;;
47960;SDS011;33721;48.852;9.936;2022-12-28T01:56:38;26.23;;;10.82;;
47960;SDS011;33721;48.852;9.936;2022-12-28T01:59:05;21.48;;;10.07;;
47960;SDS011;33721;48.852;9.936;2022-12-28T02:01:30;23.38;;;10.98;;
47960;SDS011;33721;48.852;9.936;2022-12-28T02:03:57;27.08;;;11.38;;
47960;SDS011;33721;48.852;9.936;2022-12-28T02:06:22;28.00;;;10.60;;
47960;SDS011;33721;48.852;9.936;2022-12-28T02:08:50;21.95;;;11.05;;
47960;SDS011;33721;48.852;9.936;2022-12-28T02:11:18;26.97;;;11.53;;
47960;SDS011;33721;48.852;9.936;2022-12-28T02:13:45;28.20;;;11.77;;
47960;SDS011;33721;48.852;9.936;2022-12-28T02:16:13;26.38;;;11.20;;
47960;SDS011;33721;48.852;9.936;2022-12-28T02:18:39;25.25;;;10.60;;
47960;SDS011;33721;48.852;9.936;2022-12-28T02:26:51;24.98;;;10.55;;
47960;SDS011;33721;48.852;9.936;2022-12-28T02:29:35;23.75;;;10.02;;
47960;SDS011;33721;48.852;9.936;2022-12-28T02:35:18;20.30;;;9.40;;
47960;SDS011;33721;48.852;9.936;2022-12-28T02:37:56;24.85;;;10.10;;
47960;SDS011;33721;48.852;9.936;2022-12-28T02:43:02;22.42;;;10.02;;
47960;SDS011;33721;48.852;9.936;2022-12-28T02:45:38;24.30;;;9.10;;
47960;SDS011;33721;48.852;9.936;2022-12-28T02:48:23;20.55;;;9.93;;
47960;SDS011;33721;48.852;9.936;2022-12-28T03:04:16;25.20;;;10.65;;
47960;SDS011;33721;48.852;9.936;2022-12-28T03:07:22;21.70;;;9.40;;
47960;SDS011;33721;48.852;9.936;2022-12-28T03:10:34;27.13;;;10.38;;
47960;SDS011;33721;48.852;9.936;2022-12-28T03:13:09;23.08;;;10.20;;
47960;SDS011;33721;48.852;9.936;2022-12-28T03:16:05;21.38;;;9.48;;
47960;SDS011;33721;48.852;9.936;2022-12-28T03:18:45;21.70;;;9.40;;
47960;SDS011;33721;48.852;9.936;2022-12-28T03:21:34;22.30;;;9.40;;
47960;SDS011;33721;48.852;9.936;2022-12-28T03:24:20;20.38;;;8.32;;
47960;SDS011;33721;48.852;9.936;2022-12-28T03:27:07;21.00;;;9.27;;
47960;SDS011;33721;48.852;9.936;2022-12-28T03:29:58;19.98;;;9.48;;
47960;SDS011;33721;48.852;9.936;2022-12-28T03:32:51;27.77;;;10.52;;
47960;SDS011;33721;48.852;9.936;2022-12-28T03:35:16;21.65;;;9.77;;
47960;SDS011;33721;48.852;9.936;2022-12-28T03:37:49;22.73;;;9.77;;
47960;SDS011;33721;48.852;9.936;2022-12-28T03:43:06;22.40;;;9.07;;
47960;SDS011;33721;48.852;9.936;2022-12-28T03:46:04;18.80;;;7.72;;
47960;SDS011;33721;48.852;9.936;2022-12-28T03:48:39;18.17;;;7.82;;
47960;SDS011;33721;48.852;9.936;2022-12-28T03:51:06;18.55;;;7.68;;
47960;SDS011;33721;48.852;9.936;2022-12-28T03:53:39;14.90;;;7.07;;
47960;SDS011;33721;48.852;9.936;2022-12-28T03:56:17;16.38;;;6.32;;
47960;SDS011;33721;48.852;9.936;2022-12-28T03:58:45;16.88;;;6.97;;
47960;SDS011;33721;48.852;9.936;2022-12-28T04:01:11;19.45;;;8.43;;
47960;SDS011;33721;48.852;9.936;2022-12-28T04:03:37;20.10;;;8.45;;
47960;SDS011;33721;48.852;9.936;2022-12-28T04:06:03;19.88;;;7.97;;
47960;SDS011;33721;48.852;9.936;2022-12-28T04:08:29;19.35;;;8.02;;
47960;SDS011;33721;48.852;9.936;2022-12-28T04:10:57;18.80;;;7.95;;
47960;SDS011;33721;48.852;9.936;2022-12-28T04:13:24;18.60;;;9.13;;
47960;SDS011;33721;48.852;9.936;2022-12-28T04:16:03;21.65;;;9.63;;
47960;SDS011;33721;48.852;9.936;2022-12-28T04:18:31;22.67;;;10.23;;
47960;SDS011;33721;48.852;9.936;2022-12-28T04:20:57;24.52;;;11.10;;
47960;SDS011;33721;48.852;9.936;2022-12-28T04:23:23;23.88;;;10.73;;
47960;SDS011;33721;48.852;9.936;2022-12-28T04:26:02;23.73;;;10.43;;
47960;SDS011;33721;48.852;9.936;2022-12-28T04:28:30;29.33;;;10.52;;
47960;SDS011;33721;48.852;9.936;2022-12-28T04:30:56;26.98;;;10.85;;
47960;SDS011;33721;48.852;9.936;2022-12-28T04:33:23;22.92;;;10.85;;
47960;SDS011;33721;48.852;9.936;2022-12-28T04:35:49;22.90;;;10.20;;
47960;SDS011;33721;48.852;9.936;2022-12-28T04:38:15;21.75;;;10.00;;
47960;SDS011;33721;48.852;9.936;2022-12-28T04:40:40;27.10;;;10.57;;
47960;SDS011;33721;48.852;9.936;2022-12-28T04:43:06;24.58;;;11.15;;
47960;SDS011;33721;48.852;9.936;2022-12-28T04:45:32;23.58;;;11.45;;
47960;SDS011;33721;48.852;9.936;2022-12-28T04:47:58;24.80;;;10.93;;
47960;SDS011;33721;48.852;9.936;2022-12-28T04:50:24;22.98;;;11.32;;
47960;SDS011;33721;48.852;9.936;2022-12-28T04:52:50;22.35;;;10.52;;
47960;SDS011;33721;48.852;9.936;2022-12-28T04:55:15;24.00;;;10.57;;
47960;SDS011;33721;48.852;9.936;2022-12-28T04:57:45;21.98;;;10.60;;
47960;SDS011;33721;48.852;9.936;2022-12-28T05:00:12;28.45;;;11.25;;
47960;SDS011;33721;48.852;9.936;2022-12-28T05:02:38;21.67;;;10.50;;
47960;SDS011;33721;48.852;9.936;2022-12-28T05:05:04;26.02;;;11.45;;
47960;SDS011;33721;48.852;9.936;2022-12-28T05:07:30;32.33;;;13.35;;
47960;SDS011;33721;48.852;9.936;2022-12-28T05:09:56;31.60;;;12.82;;
47960;SDS011;33721;48.852;9.936;2022-12-28T05:12:22;31.05;;;12.82;;
47960;SDS011;33721;48.852;9.936;2022-12-28T05:14:48;30.00;;;13.38;;
47960;SDS011;33721;48.852;9.936;2022-12-28T05:17:13;28.67;;;12.75;;
47960;SDS011;33721;48.852;9.936;2022-12-28T05:19:39;22.88;;;10.75;;
47960;SDS011;33721;48.852;9.936;2022-12-28T05:22:05;22.75;;;9.90;;
47960;SDS011;33721;48.852;9.936;2022-12-28T05:24:36;20.92;;;10.20;;
47960;SDS011;33721;48.852;9.936;2022-12-28T05:27:02;25.00;;;10.70;;
47960;SDS011;33721;48.852;9.936;2022-12-28T05:29:28;26.40;;;10.75;;
47960;SDS011;33721;48.852;9.936;2022-12-28T05:31:53;20.25;;;9.88;;
47960;SDS011;33721;48.852;9.936;2022-12-28T05:34:19;24.88;;;10.95;;
47960;SDS011;33721;48.852;9.936;2022-12-28T05:36:44;26.80;;;10.30;;
47960;SDS011;33721;48.852;9.936;2022-12-28T05:39:10;22.75;;;10.32;;
47960;SDS011;33721;48.852;9.936;2022-12-28T05:41:36;22.50;;;10.52;;
47960;SDS011;33721;48.852;9.936;2022-12-28T05:44:01;21.10;;;9.55;;
47960;SDS011;33721;48.852;9.936;2022-12-28T05:46:28;22.50;;;10.05;;
47960;SDS011;33721;48.852;9.936;2022-12-28T05:48:55;23.08;;;10.15;;
47960;SDS011;33721;48.852;9.936;2022-12-28T05:51:22;25.52;;;10.45;;
47960;SDS011;33721;48.852;9.936;2022-12-28T05:53:50;27.05;;;11.10;;
47960;SDS011;33721;48.852;9.936;2022-12-28T05:56:25;26.38;;;11.00;;
47960;SDS011;33721;48.852;9.936;2022-12-28T05:58:54;24.38;;;10.25;;
47960;SDS011;33721;48.852;9.936;2022-12-28T06:01:22;25.58;;;11.15;;
47960;SDS011;33721;48.852;9.936;2022-12-28T06:03:56;23.52;;;10.18;;
47960;SDS011;33721;48.852;9.936;2022-12-28T06:06:27;21.98;;;9.43;;
47960;SDS011;33721;48.852;9.936;2022-12-28T06:08:53;21.17;;;8.35;;
47960;SDS011;33721;48.852;9.936;2022-12-28T06:11:20;18.00;;;7.90;;
47960;SDS011;33721;48.852;9.936;2022-12-28T06:13:47;20.00;;;9.25;;
47960;SDS011;33721;48.852;9.936;2022-12-28T06:16:14;20.13;;;8.52;;
47960;SDS011;33721;48.852;9.936;2022-12-28T06:18:42;19.55;;;8.02;;
47960;SDS011;33721;48.852;9.936;2022-12-28T06:23:34;17.63;;;7.13;;
47960;SDS011;33721;48.852;9.936;2022-12-28T06:26:01;17.48;;;7.70;;
47960;SDS011;33721;48.852;9.936;2022-12-28T06:28:28;13.27;;;7.18;;
47960;SDS011;33721;48.852;9.936;2022-12-28T06:31:07;17.73;;;7.82;;
47960;SDS011;33721;48.852;9.936;2022-12-28T06:33:37;15.88;;;7.50;;
47960;SDS011;33721;48.852;9.936;2022-12-28T06:36:03;16.15;;;7.30;;
47960;SDS011;33721;48.852;9.936;2022-12-28T06:38:30;16.77;;;7.55;;
47960;SDS011;33721;48.852;9.936;2022-12-28T06:41:02;15.30;;;7.72;;
47960;SDS011;33721;48.852;9.936;2022-12-28T06:43:34;17.70;;;8.10;;
47960;SDS011;33721;48.852;9.936;2022-12-28T06:46:02;17.40;;;7.65;;
47960;SDS011;33721;48.852;9.936;2022-12-28T06:48:28;18.65;;;7.90;;
47960;SDS011;33721;48.852;9.936;2022-12-28T06:50:58;17.17;;;7.53;;
47960;SDS011;33721;48.852;9.936;2022-12-28T06:53:26;17.30;;;8.05;;
47960;SDS011;33721;48.852;9.936;2022-12-28T06:55:55;18.15;;;8.98;;
47960;SDS011;33721;48.852;9.936;2022-12-28T06:58:22;19.45;;;9.50;;
47960;SDS011;33721;48.852;9.936;2022-12-28T07:00:49;20.70;;;9.00;;
47960;SDS011;33721;48.852;9.936;2022-12-28T07:03:15;19.50;;;9.05;;
47960;SDS011;33721;48.852;9.936;2022-12-28T07:05:41;20.08;;;8.70;;
47960;SDS011;33721;48.852;9.936;2022-12-28T07:08:06;19.55;;;9.00;;
47960;SDS011;33721;48.852;9.936;2022-12-28T07:10:32;22.58;;;9.02;;
47960;SDS011;33721;48.852;9.936;2022-12-28T07:12:58;20.52;;;9.00;;
47960;SDS011;33721;48.852;9.936;2022-12-28T07:15:24;17.83;;;8.20;;
47960;SDS011;33721;48.852;9.936;2022-12-28T07:17:50;20.35;;;8.65;;
47960;SDS011;33721;48.852;9.936;2022-12-28T07:20:15;19.30;;;7.95;;
47960;SDS011;33721;48.852;9.936;2022-12-28T07:22:41;17.92;;;8.02;;
47960;SDS011;33721;48.852;9.936;2022-12-28T07:25:07;16.00;;;7.82;;
47960;SDS011;33721;48.852;9.936;2022-12-28T07:27:33;15.82;;;7.57;;
47960;SDS011;33721;48.852;9.936;2022-12-28T07:29:59;15.77;;;7.40;;
47960;SDS011;33721;48.852;9.936;2022-12-28T07:32:25;16.50;;;7.65;;
47960;SDS011;33721;48.852;9.936;2022-12-28T07:34:51;16.67;;;8.00;;
47960;SDS011;33721;48.852;9.936;2022-12-28T07:37:17;13.63;;;5.75;;
47960;SDS011;33721;48.852;9.936;2022-12-28T07:39:42;12.07;;;5.50;;
47960;SDS011;33721;48.852;9.936;2022-12-28T07:42:08;9.25;;;4.93;;
47960;SDS011;33721;48.852;9.936;2022-12-28T07:44:35;11.00;;;4.95;;
47960;SDS011;33721;48.852;9.936;2022-12-28T07:47:02;11.18;;;4.60;;
47960;SDS011;33721;48.852;9.936;2022-12-28T07:49:27;9.10;;;4.47;;
47960;SDS011;33721;48.852;9.936;2022-12-28T07:51:53;10.68;;;4.63;;
47960;SDS011;33721;48.852;9.936;2022-12-28T07:54:19;7.72;;;3.05;;
47960;SDS011;33721;48.852;9.936;2022-12-28T07:56:44;13.40;;;5.47;;
47960;SDS011;33721;48.852;9.936;2022-12-28T07:59:10;15.35;;;6.32;;
47960;SDS011;33721;48.852;9.936;2022-12-28T08:01:38;22.55;;;9.20;;
47960;SDS011;33721;48.852;9.936;2022-12-28T08:04:05;19.38;;;8.63;;
47960;SDS011;33721;48.852;9.936;2022-12-28T08:06:38;18.98;;;8.90;;
47960;SDS011;33721;48.852;9.936;2022-12-28T08:09:05;16.13;;;8.02;;
47960;SDS011;33721;48.852;9.936;2022-12-28T08:11:33;29.67;;;10.98;;
47960;SDS011;33721;48.852;9.936;2022-12-28T08:14:00;24.08;;;10.95;;
47960;SDS011;33721;48.852;9.936;2022-12-28T08:16:29;29.17;;;12.00;;
47960;SDS011;33721;48.852;9.936;2022-12-28T08:18:56;24.40;;;11.40;;
47960;SDS011;33721;48.852;9.936;2022-12-28T08:21:24;31.95;;;14.75;;
47960;SDS011;33721;48.852;9.936;2022-12-28T08:23:54;34.65;;;15.23;;
47960;SDS011;33721;48.852;9.936;2022-12-28T08:26:22;32.13;;;14.70;;
47960;SDS011;33721;48.852;9.936;2022-12-28T08:28:50;32.10;;;13.75;;
47960;SDS011;33721;48.852;9.936;2022-12-28T08:31:21;25.92;;;13.10;;
47960;SDS011;33721;48.852;9.936;2022-12-28T08:33:52;24.58;;;11.75;;
47960;SDS011;33721;48.852;9.936;2022-12-28T08:36:19;25.67;;;11.88;;
47960;SDS011;33721;48.852;9.936;2022-12-28T08:38:48;33.22;;;14.18;;
47960;SDS011;33721;48.852;9.936;2022-12-28T08:41:15;29.70;;;14.02;;
47960;SDS011;33721;48.852;9.936;2022-12-28T08:43:43;29.63;;;14.30;;
47960;SDS011;33721;48.852;9.936;2022-12-28T08:46:10;27.38;;;11.95;;
47960;SDS011;33721;48.852;9.936;2022-12-28T08:48:38;27.13;;;13.18;;
47960;SDS011;33721;48.852;9.936;2022-12-28T08:51:05;34.20;;;15.82;;
47960;SDS011;33721;48.852;9.936;2022-12-28T08:53:33;32.63;;;15.68;;
47960;SDS011;33721;48.852;9.936;2022-12-28T08:56:06;30.40;;;14.95;;
47960;SDS011;33721;48.852;9.936;2022-12-28T08:58:37;19.70;;;8.23;;
47960;SDS011;33721;48.852;9.936;2022-12-28T09:01:07;11.82;;;5.15;;
47960;SDS011;33721;48.852;9.936;2022-12-28T09:03:36;21.63;;;10.63;;
47960;SDS011;33721;48.852;9.936;2022-12-28T09:06:06;9.52;;;4.05;;
47960;SDS011;33721;48.852;9.936;2022-12-28T09:08:33;16.80;;;7.80;;
47960;SDS011;33721;48.852;9.936;2022-12-28T09:11:00;13.52;;;5.30;;
47960;SDS011;33721;48.852;9.936;2022-12-28T09:13:28;13.77;;;5.50;;
47960;SDS011;33721;48.852;9.936;2022-12-28T09:18:33;25.65;;;11.32;;
47960;SDS011;33721;48.852;9.936;2022-12-28T09:21:12;13.18;;;6.65;;
47960;SDS011;33721;48.852;9.936;2022-12-28T09:26:08;11.63;;;5.15;;
47960;SDS011;33721;48.852;9.936;2022-12-28T09:28:48;6.53;;;2.72;;
47960;SDS011;33721;48.852;9.936;2022-12-28T09:31:14;11.80;;;4.88;;
47960;SDS011;33721;48.852;9.936;2022-12-28T09:33:41;8.88;;;4.38;;
47960;SDS011;33721;48.852;9.936;2022-12-28T09:39:00;7.18;;;2.78;;
47960;SDS011;33721;48.852;9.936;2022-12-28T09:41:32;10.45;;;4.90;;
47960;SDS011;33721;48.852;9.936;2022-12-28T09:49:55;13.55;;;4.82;;
47960;SDS011;33721;48.852;9.936;2022-12-28T09:55:35;12.27;;;4.60;;
47960;SDS011;33721;48.852;9.936;2022-12-28T09:58:02;11.38;;;5.43;;
47960;SDS011;33721;48.852;9.936;2022-12-28T10:00:40;8.73;;;3.70;;
47960;SDS011;33721;48.852;9.936;2022-12-28T10:03:16;9.20;;;4.00;;
47960;SDS011;33721;48.852;9.936;2022-12-28T10:05:44;6.55;;;3.42;;
47960;SDS011;33721;48.852;9.936;2022-12-28T10:08:11;9.40;;;3.47;;
47960;SDS011;33721;48.852;9.936;2022-12-28T10:10:39;7.10;;;3.25;;
47960;SDS011;33721;48.852;9.936;2022-12-28T10:13:17;6.05;;;3.40;;
47960;SDS011;33721;48.852;9.936;2022-12-28T10:15:45;7.90;;;2.33;;
47960;SDS011;33721;48.852;9.936;2022-12-28T10:18:12;5.07;;;2.08;;
47960;SDS011;33721;48.852;9.936;2022-12-28T10:20:39;5.32;;;2.40;;
47960;SDS011;33721;48.852;9.936;2022-12-28T10:23:09;6.20;;;2.65;;
47960;SDS011;33721;48.852;9.936;2022-12-28T10:25:40;3.92;;;1.90;;
47960;SDS011;33721;48.852;9.936;2022-12-28T10:28:06;4.18;;;2.00;;
47960;SDS011;33721;48.852;9.936;2022-12-28T10:30:35;7.45;;;1.95;;
47960;SDS011;33721;48.852;9.936;2022-12-28T10:33:10;4.95;;;2.22;;
47960;SDS011;33721;48.852;9.936;2022-12-28T10:35:50;5.85;;;2.67;;
47960;SDS011;33721;48.852;9.936;2022-12-28T10:38:19;4.88;;;2.25;;
47960;SDS011;33721;48.852;9.936;2022-12-28T10:40:59;7.43;;;2.30;;
47960;SDS011;33721;48.852;9.936;2022-12-28T10:43:38;7.75;;;2.40;;
47960;SDS011;33721;48.852;9.936;2022-12-28T10:46:05;4.50;;;1.70;;
47960;SDS011;33721;48.852;9.936;2022-12-28T10:48:38;3.55;;;1.45;;
47960;SDS011;33721;48.852;9.936;2022-12-28T10:51:12;4.72;;;1.90;;
47960;SDS011;33721;48.852;9.936;2022-12-28T10:53:46;4.22;;;1.55;;
47960;SDS011;33721;48.852;9.936;2022-12-28T10:58:45;5.15;;;1.15;;
47960;SDS011;33721;48.852;9.936;2022-12-28T11:06:10;4.45;;;1.58;;
47960;SDS011;33721;48.852;9.936;2022-12-28T11:08:43;2.80;;;1.10;;
47960;SDS011;33721;48.852;9.936;2022-12-28T11:11:19;4.40;;;1.27;;
47960;SDS011;33721;48.852;9.936;2022-12-28T11:13:51;4.15;;;1.60;;
47960;SDS011;33721;48.852;9.936;2022-12-28T11:16:39;3.55;;;1.52;;
47960;SDS011;33721;48.852;9.936;2022-12-28T11:19:05;4.15;;;1.17;;
47960;SDS011;33721;48.852;9.936;2022-12-28T11:21:31;8.02;;;1.63;;
47960;SDS011;33721;48.852;9.936;2022-12-28T11:23:58;3.33;;;1.38;;
47960;SDS011;33721;48.852;9.936;2022-12-28T11:26:24;3.03;;;1.38;;
47960;SDS011;33721;48.852;9.936;2022-12-28T11:28:52;4.32;;;1.50;;
47960;SDS011;33721;48.852;9.936;2022-12-28T11:31:23;3.92;;;1.65;;
47960;SDS011;33721;48.852;9.936;2022-12-28T11:33:55;2.97;;;1.52;;
47960;SDS011;33721;48.852;9.936;2022-12-28T11:36:24;4.87;;;1.97;;
47960;SDS011;33721;48.852;9.936;2022-12-28T11:38:52;4.03;;;1.33;;
47960;SDS011;33721;48.852;9.936;2022-12-28T11:43:55;4.82;;;1.50;;
47960;SDS011;33721;48.852;9.936;2022-12-28T11:51:29;7.22;;;1.88;;
47960;SDS011;33721;48.852;9.936;2022-12-28T11:56:27;5.45;;;1.80;;
47960;SDS011;33721;48.852;9.936;2022-12-28T11:59:23;4.57;;;1.55;;
47960;SDS011;33721;48.852;9.936;2022-12-28T12:01:54;6.35;;;1.90;;
47960;SDS011;33721;48.852;9.936;2022-12-28T12:11:58;5.30;;;1.90;;
47960;SDS011;33721;48.852;9.936;2022-12-28T12:17:19;4.63;;;1.80;;
47960;SDS011;33721;48.852;9.936;2022-12-28T12:19:56;3.17;;;1.20;;
47960;SDS011;33721;48.852;9.936;2022-12-28T12:22:27;4.82;;;1.60;;
47960;SDS011;33721;48.852;9.936;2022-12-28T12:27:42;4.07;;;1.65;;
47960;SDS011;33721;48.852;9.936;2022-12-28T12:30:15;4.22;;;1.40;;
47960;SDS011;33721;48.852;9.936;2022-12-28T12:38:41;6.43;;;1.55;;
47960;SDS011;33721;48.852;9.936;2022-12-28T12:41:41;2.78;;;1.38;;
47960;SDS011;33721;48.852;9.936;2022-12-28T12:44:18;3.63;;;1.67;;
47960;SDS011;33721;48.852;9.936;2022-12-28T12:52:26;4.95;;;1.35;;
47960;SDS011;33721;48.852;9.936;2022-12-28T12:55:10;4.25;;;1.10;;
47960;SDS011;33721;48.852;9.936;2022-12-28T12:58:00;4.45;;;1.13;;
47960;SDS011;33721;48.852;9.936;2022-12-28T13:00:42;1.52;;;0.82;;
47960;SDS011;33721;48.852;9.936;2022-12-28T13:03:55;5.28;;;1.10;;
47960;SDS011;33721;48.852;9.936;2022-12-28T13:06:05;2.17;;;1.17;;
47960;SDS011;33721;48.852;9.936;2022-12-28T13:08:34;2.72;;;1.00;;
47960;SDS011;33721;48.852;9.936;2022-12-28T13:11:07;2.78;;;1.08;;
47960;SDS011;33721;48.852;9.936;2022-12-28T13:13:34;2.55;;;1.15;;
47960;SDS011;33721;48.852;9.936;2022-12-28T13:16:03;3.70;;;1.20;;
47960;SDS011;33721;48.852;9.936;2022-12-28T13:18:33;3.58;;;0.93;;
47960;SDS011;33721;48.852;9.936;2022-12-28T13:21:00;4.68;;;1.30;;
47960;SDS011;33721;48.852;9.936;2022-12-28T13:23:28;6.43;;;1.13;;
47960;SDS011;33721;48.852;9.936;2022-12-28T13:25:56;3.20;;;1.25;;
47960;SDS011;33721;48.852;9.936;2022-12-28T13:28:31;5.30;;;1.30;;
47960;SDS011;33721;48.852;9.936;2022-12-28T13:31:12;3.00;;;1.10;;
47960;SDS011;33721;48.852;9.936;2022-12-28T13:33:42;3.47;;;1.23;;
47960;SDS011;33721;48.852;9.936;2022-12-28T13:36:51;2.08;;;0.85;;
47960;SDS011;33721;48.852;9.936;2022-12-28T13:39:20;5.00;;;0.88;;
47960;SDS011;33721;48.852;9.936;2022-12-28T13:41:51;2.38;;;0.93;;
47960;SDS011;33721;48.852;9.936;2022-12-28T13:44:31;5.63;;;1.10;;
47960;SDS011;33721;48.852;9.936;2022-12-28T13:47:24;2.20;;;1.02;;
47960;SDS011;33721;48.852;9.936;2022-12-28T13:55:09;1.95;;;0.80;;
47960;SDS011;33721;48.852;9.936;2022-12-28T13:57:48;3.47;;;0.60;;
47960;SDS011;33721;48.852;9.936;2022-12-28T14:00:17;3.08;;;1.00;;
47960;SDS011;33721;48.852;9.936;2022-12-28T14:02:44;3.58;;;1.05;;
47960;SDS011;33721;48.852;9.936;2022-12-28T14:05:16;2.10;;;0.77;;
47960;SDS011;33721;48.852;9.936;2022-12-28T14:07:45;2.75;;;1.00;;
47960;SDS011;33721;48.852;9.936;2022-12-28T14:10:12;3.92;;;0.93;;
47960;SDS011;33721;48.852;9.936;2022-12-28T14:12:37;4.88;;;0.90;;
47960;SDS011;33721;48.852;9.936;2022-12-28T14:15:04;4.13;;;1.05;;
47960;SDS011;33721;48.852;9.936;2022-12-28T14:17:31;1.10;;;0.70;;
47960;SDS011;33721;48.852;9.936;2022-12-28T14:19:57;1.02;;;0.63;;
47960;SDS011;33721;48.852;9.936;2022-12-28T14:22:24;3.03;;;0.70;;
47960;SDS011;33721;48.852;9.936;2022-12-28T14:25:05;4.38;;;0.93;;
47960;SDS011;33721;48.852;9.936;2022-12-28T14:27:40;5.82;;;1.15;;
47960;SDS011;33721;48.852;9.936;2022-12-28T14:30:25;4.43;;;1.42;;
47960;SDS011;33721;48.852;9.936;2022-12-28T14:32:58;2.15;;;1.02;;
47960;SDS011;33721;48.852;9.936;2022-12-28T14:35:28;5.80;;;1.25;;
47960;SDS011;33721;48.852;9.936;2022-12-28T14:37:55;2.53;;;1.00;;
47960;SDS011;33721;48.852;9.936;2022-12-28T14:40:27;5.32;;;0.98;;
47960;SDS011;33721;48.852;9.936;2022-12-28T14:42:58;2.85;;;0.90;;
47960;SDS011;33721;48.852;9.936;2022-12-28T14:53:41;2.63;;;1.27;;
47960;SDS011;33721;48.852;9.936;2022-12-28T14:56:08;4.07;;;1.30;;
47960;SDS011;33721;48.852;9.936;2022-12-28T15:01:08;2.83;;;1.50;;
47960;SDS011;33721;48.852;9.936;2022-12-28T15:03:47;2.72;;;1.50;;
47960;SDS011;33721;48.852;9.936;2022-12-28T15:06:21;6.38;;;1.75;;
47960;SDS011;33721;48.852;9.936;2022-12-28T15:08:52;8.18;;;1.90;;
47960;SDS011;33721;48.852;9.936;2022-12-28T15:11:20;4.38;;;1.70;;
47960;SDS011;33721;48.852;9.936;2022-12-28T15:13:47;4.30;;;1.70;;
47960;SDS011;33721;48.852;9.936;2022-12-28T15:16:13;3.05;;;1.63;;
47960;SDS011;33721;48.852;9.936;2022-12-28T15:18:40;7.78;;;1.70;;
47960;SDS011;33721;48.852;9.936;2022-12-28T15:21:09;3.58;;;1.65;;
47960;SDS011;33721;48.852;9.936;2022-12-28T15:23:36;4.95;;;1.95;;
47960;SDS011;33721;48.852;9.936;2022-12-28T15:26:09;4.60;;;2.05;;
47960;SDS011;33721;48.852;9.936;2022-12-28T15:28:38;6.07;;;2.20;;
47960;SDS011;33721;48.852;9.936;2022-12-28T15:31:08;5.07;;;2.00;;
47960;SDS011;33721;48.852;9.936;2022-12-28T15:33:36;5.60;;;2.63;;
47960;SDS011;33721;48.852;9.936;2022-12-28T15:36:10;10.60;;;2.95;;
47960;SDS011;33721;48.852;9.936;2022-12-28T15:38:37;3.97;;;2.30;;
47960;SDS011;33721;48.852;9.936;2022-12-28T15:41:02;3.95;;;2.38;;
47960;SDS011;33721;48.852;9.936;2022-12-28T15:43:48;4.72;;;2.47;;
47960;SDS011;33721;48.852;9.936;2022-12-28T15:46:14;7.80;;;2.45;;
47960;SDS011;33721;48.852;9.936;2022-12-28T15:48:39;5.97;;;2.00;;
47960;SDS011;33721;48.852;9.936;2022-12-28T15:51:05;4.95;;;2.55;;
47960;SDS011;33721;48.852;9.936;2022-12-28T15:53:30;4.47;;;2.75;;
47960;SDS011;33721;48.852;9.936;2022-12-28T15:55:57;5.32;;;2.53;;
47960;SDS011;33721;48.852;9.936;2022-12-28T15:58:24;9.18;;;2.58;;
47960;SDS011;33721;48.852;9.936;2022-12-28T16:00:50;6.55;;;2.80;;
47960;SDS011;33721;48.852;9.936;2022-12-28T16:03:15;4.50;;;2.60;;
47960;SDS011;33721;48.852;9.936;2022-12-28T16:05:41;8.98;;;3.03;;
47960;SDS011;33721;48.852;9.936;2022-12-28T16:08:07;8.80;;;2.72;;
47960;SDS011;33721;48.852;9.936;2022-12-28T16:10:32;5.63;;;2.47;;
47960;SDS011;33721;48.852;9.936;2022-12-28T16:12:58;6.43;;;2.50;;
47960;SDS011;33721;48.852;9.936;2022-12-28T16:15:23;8.07;;;2.47;;
47960;SDS011;33721;48.852;9.936;2022-12-28T16:17:50;8.45;;;2.75;;
47960;SDS011;33721;48.852;9.936;2022-12-28T16:20:15;5.18;;;2.72;;
47960;SDS011;33721;48.852;9.936;2022-12-28T16:22:41;7.85;;;3.03;;
47960;SDS011;33721;48.852;9.936;2022-12-28T16:25:07;6.03;;;2.75;;
47960;SDS011;33721;48.852;9.936;2022-12-28T16:27:33;5.40;;;2.67;;
47960;SDS011;33721;48.852;9.936;2022-12-28T16:29:58;6.25;;;3.00;;
47960;SDS011;33721;48.852;9.936;2022-12-28T16:32:24;5.88;;;2.58;;
47960;SDS011;33721;48.852;9.936;2022-12-28T16:34:49;7.50;;;3.72;;
47960;SDS011;33721;48.852;9.936;2022-12-28T16:37:18;6.80;;;2.90;;
47960;SDS011;33721;48.852;9.936;2022-12-28T16:39:44;7.70;;;2.83;;
47960;SDS011;33721;48.852;9.936;2022-12-28T16:42:10;5.72;;;2.35;;